F/V Le Natif 2 — FKVW — position and weather

sailwx.info

Track history (hours):
 
Tides and Currents Weather Stations Pressure Air Temp Water Temp Dewpoint Dewpoint Depression Visibility Wind Speed Wind Dir Waves Ship Positions

F/V Le Natif 2

Last reported at 2014-Oct-31 07:33 UTC. Time now 2014-Nov-01 11:11 UTC.
Position N 46°42' W 001°57'.

Length 16 m.

Type: Fishing. MMSI: 228131600.

Date/timePositionNaut miles runAvg speedWind from/ knotsBaromVisibWave heightAir tempDewpointWater temp
2014-Oct-31 07:33N 46°42' W 001°57'0 0.0
2014-Oct-31 06:33N 46°42' W 001°57'0 0.1
2014-Oct-31 05:33N 46°42' W 001°57'0 0.3
2014-Oct-31 04:33N 46°42' W 001°57'9 9.2
2014-Oct-31 03:33N 46°35' W 002°06'9 9.2
2014-Oct-31 02:33N 46°28' W 002°14'9 9.1
2014-Oct-31 01:31N 46°21' W 002°23'9 8.7
2014-Oct-31 00:33N 46°14' W 002°32'2 2.4
2014-Oct-30 23:33N 46°12' W 002°33'4 3.8
2014-Oct-30 22:33N 46°11' W 002°27'2 1.6
2014-Oct-30 21:28N 46°09' W 002°29'3 3.5
2014-Oct-30 20:33N 46°13' W 002°29'1 0.8
2014-Oct-30 19:33N 46°12' W 002°28'7 7.0
2014-Oct-30 18:33N 46°15' W 002°19'8 2.5
2014-Oct-30 15:28N 46°23' W 002°16'4 3.4
2014-Oct-30 14:11N 46°27' W 002°15'5 8.3
2014-Oct-30 13:33N 46°31' W 002°10'8 8.4
2014-Oct-30 12:33N 46°37' W 002°02'6 5.5
2014-Oct-30 11:33N 46°42' W 001°56'0 0.0
2014-Oct-30 10:33N 46°42' W 001°56'1 1.1
2014-Oct-30 09:33N 46°41' W 001°58'9 8.8
2014-Oct-30 08:33N 46°33' W 002°04'9 8.6
2014-Oct-30 07:33N 46°26' W 002°11'9 8.7
2014-Oct-30 06:33N 46°19' W 002°18'3 3.3
2014-Oct-30 05:31N 46°16' W 002°20'3 2.9
2014-Oct-30 04:29N 46°15' W 002°25'6 2.8
2014-Oct-30 02:14N 46°14' W 002°34'2 2.9
2014-Oct-30 01:23N 46°17' W 002°33'6 6.3
2014-Oct-30 00:30N 46°21' W 002°39'3 3.1
2014-Oct-29 23:32N 46°23' W 002°41'4 3.1
2014-Oct-29 22:20N 46°27' W 002°41'3 3.1
2014-Oct-29 21:18N 46°25' W 002°37'3 3.5
2014-Oct-29 20:29N 46°23' W 002°35'3 3.3
2014-Oct-29 19:32N 46°20' W 002°32'5 5.2
2014-Oct-29 18:30N 46°18' W 002°25'4 1.3
2014-Oct-29 15:09N 46°22' W 002°26'3 2.8
2014-Oct-29 14:03N 46°24' W 002°29'1 1.7
2014-Oct-29 13:27N 46°25' W 002°30'2 1.9
2014-Oct-29 12:33N 46°27' W 002°31'3 2.6
2014-Oct-29 11:33N 46°29' W 002°33'3 2.6
2014-Oct-29 10:30N 46°31' W 002°34'3 3.1
2014-Oct-29 09:33N 46°33' W 002°30'3 3.1
2014-Oct-29 08:33N 46°33' W 002°26'9 6.0
2014-Oct-29 07:08N 46°35' W 002°14'5 8.5
2014-Oct-29 06:32N 46°37' W 002°07'8 8.4
2014-Oct-29 05:33N 46°42' W 001°57'0 0.2
2014-Oct-29 03:33N 46°42' W 001°56'2 2.2
2014-Oct-29 02:33N 46°40' W 001°59'4 3.9
2014-Oct-29 01:33N 46°37' W 002°02'7 6.6
2014-Oct-29 00:33N 46°32' W 002°08'7 7.2
2014-Oct-28 23:33N 46°27' W 002°15'7 7.2
2014-Oct-28 22:32N 46°20' W 002°21'9 7.0
2014-Oct-28 21:16N 46°13' W 002°29'2 2.5
2014-Oct-28 20:33N 46°12' W 002°31'3 2.5
2014-Oct-28 19:31N 46°14' W 002°34'3 3.2
2014-Oct-28 18:32N 46°12' W 002°30'7 6.0
2014-Oct-28 17:25N 46°17' W 002°23'3 2.8
2014-Oct-28 16:20N 46°19' W 002°19'2 2.5
2014-Oct-28 15:32N 46°18' W 002°17'3 2.8
2014-Oct-28 14:32N 46°17' W 002°14'3 0.9
2014-Oct-28 11:07N 46°15' W 002°18'9 2.2
2014-Oct-28 07:10N 46°22' W 002°26'5 3.0
2014-Oct-28 05:32N 46°26' W 002°31'4 4.2
2014-Oct-28 04:33N 46°29' W 002°34'1 0.3
2014-Oct-28 02:33N 46°29' W 002°33'1 0.7
2014-Oct-28 01:33N 46°28' W 002°33'3 3.4
2014-Oct-28 00:33N 46°30' W 002°37'7 5.6
2014-Oct-27 23:14N 46°34' W 002°46'5 6.7
2014-Oct-27 22:33N 46°36' W 002°52'9 7.9
2014-Oct-27 21:27N 46°42' W 003°02'17 3.2
2014-Oct-27 16:09N 46°53' W 003°21'17 4.6
2014-Oct-27 12:31N 47°09' W 003°26'4 3.7
2014-Oct-27 11:32N 47°06' W 003°23'6 5.9
2014-Oct-27 10:27N 47°03' W 003°15'8 9.3
2014-Oct-27 09:33N 47°00' W 003°03'10 9.5
2014-Oct-27 08:33N 46°56' W 002°51'9 8.9
2014-Oct-27 07:33N 46°52' W 002°39'9 8.8
2014-Oct-27 06:33N 46°49' W 002°27'9 8.8
2014-Oct-27 05:33N 46°46' W 002°15'9 8.7
2014-Oct-27 04:33N 46°42' W 002°03'5 4.7
2014-Oct-27 03:33N 46°42' W 001°57'  
2014-Oct-24 11:24N 46°42' W 001°56'0 0.0
2014-Oct-24 10:33N 46°42' W 001°56'0 0.0
2014-Oct-24 09:34N 46°42' W 001°56'0 0.0
2014-Oct-24 08:33N 46°42' W 001°56'0 0.0
2014-Oct-24 07:34N 46°42' W 001°56'0 0.0
2014-Oct-24 06:34N 46°42' W 001°56'0 0.0
2014-Oct-24 05:34N 46°42' W 001°56'0 0.0
2014-Oct-24 04:33N 46°42' W 001°56'0 0.0
2014-Oct-24 03:33N 46°42' W 001°56'0 0.0
2014-Oct-24 02:33N 46°42' W 001°56'3 3.1
2014-Oct-24 01:33N 46°39' W 001°59'9 9.0
2014-Oct-24 00:34N 46°32' W 002°07'9 9.3
2014-Oct-23 23:33N 46°25' W 002°16'70 1.7
2014-Oct-22 05:25N 47°24' W 003°11'7 8.3
2014-Oct-22 04:33N 47°21' W 003°02'8 7.9
2014-Oct-22 03:31N 47°18' W 002°50'8 8.1
2014-Oct-22 02:31N 47°20' W 002°38'  
Track history (hours):
 
Tides and Currents Weather Stations Pressure Air Temp Water Temp Dewpoint Dewpoint Depression Visibility Wind Speed Wind Dir Waves Ship Positions

F/V Le Natif 2

Last reported at 2014-Oct-31 07:33 UTC. Time now 2014-Nov-01 11:11 UTC.
Position N 46°42' W 001°57'.

Length 16 m.

Type: Fishing. MMSI: 228131600.

Date/timePositionNaut miles runAvg speedWind from/ knotsBaromVisibWave heightAir tempDewpointWater temp
2014-Oct-31 07:33N 46°42' W 001°57'0 0.0
2014-Oct-31 06:33N 46°42' W 001°57'0 0.1
2014-Oct-31 05:33N 46°42' W 001°57'0 0.3
2014-Oct-31 04:33N 46°42' W 001°57'9 9.2
2014-Oct-31 03:33N 46°35' W 002°06'9 9.2
2014-Oct-31 02:33N 46°28' W 002°14'9 9.1
2014-Oct-31 01:31N 46°21' W 002°23'9 8.7
2014-Oct-31 00:33N 46°14' W 002°32'2 2.4
2014-Oct-30 23:33N 46°12' W 002°33'4 3.8
2014-Oct-30 22:33N 46°11' W 002°27'2 1.6
2014-Oct-30 21:28N 46°09' W 002°29'3 3.5
2014-Oct-30 20:33N 46°13' W 002°29'1 0.8
2014-Oct-30 19:33N 46°12' W 002°28'7 7.0
2014-Oct-30 18:33N 46°15' W 002°19'8 2.5
2014-Oct-30 15:28N 46°23' W 002°16'4 3.4
2014-Oct-30 14:11N 46°27' W 002°15'5 8.3
2014-Oct-30 13:33N 46°31' W 002°10'8 8.4
2014-Oct-30 12:33N 46°37' W 002°02'6 5.5
2014-Oct-30 11:33N 46°42' W 001°56'0 0.0
2014-Oct-30 10:33N 46°42' W 001°56'1 1.1
2014-Oct-30 09:33N 46°41' W 001°58'9 8.8
2014-Oct-30 08:33N 46°33' W 002°04'9 8.6
2014-Oct-30 07:33N 46°26' W 002°11'9 8.7
2014-Oct-30 06:33N 46°19' W 002°18'3 3.3
2014-Oct-30 05:31N 46°16' W 002°20'3 2.9
2014-Oct-30 04:29N 46°15' W 002°25'6 2.8
2014-Oct-30 02:14N 46°14' W 002°34'2 2.9
2014-Oct-30 01:23N 46°17' W 002°33'6 6.3
2014-Oct-30 00:30N 46°21' W 002°39'3 3.1
2014-Oct-29 23:32N 46°23' W 002°41'4 3.1
2014-Oct-29 22:20N 46°27' W 002°41'3 3.1
2014-Oct-29 21:18N 46°25' W 002°37'3 3.5
2014-Oct-29 20:29N 46°23' W 002°35'3 3.3
2014-Oct-29 19:32N 46°20' W 002°32'5 5.2
2014-Oct-29 18:30N 46°18' W 002°25'4 1.3
2014-Oct-29 15:09N 46°22' W 002°26'3 2.8
2014-Oct-29 14:03N 46°24' W 002°29'1 1.7
2014-Oct-29 13:27N 46°25' W 002°30'2 1.9
2014-Oct-29 12:33N 46°27' W 002°31'3 2.6
2014-Oct-29 11:33N 46°29' W 002°33'3 2.6
2014-Oct-29 10:30N 46°31' W 002°34'3 3.1
2014-Oct-29 09:33N 46°33' W 002°30'3 3.1
2014-Oct-29 08:33N 46°33' W 002°26'9 6.0
2014-Oct-29 07:08N 46°35' W 002°14'5 8.5
2014-Oct-29 06:32N 46°37' W 002°07'8 8.4
2014-Oct-29 05:33N 46°42' W 001°57'0 0.2
2014-Oct-29 03:33N 46°42' W 001°56'2 2.2
2014-Oct-29 02:33N 46°40' W 001°59'4 3.9
2014-Oct-29 01:33N 46°37' W 002°02'7 6.6
2014-Oct-29 00:33N 46°32' W 002°08'7 7.2
2014-Oct-28 23:33N 46°27' W 002°15'7 7.2
2014-Oct-28 22:32N 46°20' W 002°21'9 7.0
2014-Oct-28 21:16N 46°13' W 002°29'2 2.5
2014-Oct-28 20:33N 46°12' W 002°31'3 2.5
2014-Oct-28 19:31N 46°14' W 002°34'3 3.2
2014-Oct-28 18:32N 46°12' W 002°30'7 6.0
2014-Oct-28 17:25N 46°17' W 002°23'3 2.8
2014-Oct-28 16:20N 46°19' W 002°19'2 2.5
2014-Oct-28 15:32N 46°18' W 002°17'3 2.8
2014-Oct-28 14:32N 46°17' W 002°14'3 0.9
2014-Oct-28 11:07N 46°15' W 002°18'9 2.2
2014-Oct-28 07:10N 46°22' W 002°26'5 3.0
2014-Oct-28 05:32N 46°26' W 002°31'4 4.2
2014-Oct-28 04:33N 46°29' W 002°34'1 0.3
2014-Oct-28 02:33N 46°29' W 002°33'1 0.7
2014-Oct-28 01:33N 46°28' W 002°33'3 3.4
2014-Oct-28 00:33N 46°30' W 002°37'7 5.6
2014-Oct-27 23:14N 46°34' W 002°46'5 6.7
2014-Oct-27 22:33N 46°36' W 002°52'9 7.9
2014-Oct-27 21:27N 46°42' W 003°02'17 3.2
2014-Oct-27 16:09N 46°53' W 003°21'17 4.6
2014-Oct-27 12:31N 47°09' W 003°26'4 3.7
2014-Oct-27 11:32N 47°06' W 003°23'6 5.9
2014-Oct-27 10:27N 47°03' W 003°15'8 9.3
2014-Oct-27 09:33N 47°00' W 003°03'10 9.5
2014-Oct-27 08:33N 46°56' W 002°51'9 8.9
2014-Oct-27 07:33N 46°52' W 002°39'9 8.8
2014-Oct-27 06:33N 46°49' W 002°27'9 8.8
2014-Oct-27 05:33N 46°46' W 002°15'9 8.7
2014-Oct-27 04:33N 46°42' W 002°03'5 4.7
2014-Oct-27 03:33N 46°42' W 001°57'  
2014-Oct-24 11:24N 46°42' W 001°56'0 0.0
2014-Oct-24 10:33N 46°42' W 001°56'0 0.0
2014-Oct-24 09:34N 46°42' W 001°56'0 0.0
2014-Oct-24 08:33N 46°42' W 001°56'0 0.0
2014-Oct-24 07:34N 46°42' W 001°56'0 0.0
2014-Oct-24 06:34N 46°42' W 001°56'0 0.0
2014-Oct-24 05:34N 46°42' W 001°56'0 0.0
2014-Oct-24 04:33N 46°42' W 001°56'0 0.0
2014-Oct-24 03:33N 46°42' W 001°56'0 0.0
2014-Oct-24 02:33N 46°42' W 001°56'3 3.1
2014-Oct-24 01:33N 46°39' W 001°59'9 9.0
2014-Oct-24 00:34N 46°32' W 002°07'9 9.3
2014-Oct-23 23:33N 46°25' W 002°16'70 1.7
2014-Oct-22 05:25N 47°24' W 003°11'7 8.3
2014-Oct-22 04:33N 47°21' W 003°02'8 7.9
2014-Oct-22 03:31N 47°18' W 002°50'8 8.1
2014-Oct-22 02:31N 47°20' W 002°38'  

Dump ship's entire track history